sensor_id;sensor_type;location;lat;lon;timestamp;P1;durP1;ratioP1;P2;durP2;ratioP2
8825;SDS011;4449;50.872;4.714;2022-07-31T00:02:21;2.70;;;1.80;;
8825;SDS011;4449;50.872;4.714;2022-07-31T00:04:49;1.77;;;1.63;;
8825;SDS011;4449;50.872;4.714;2022-07-31T00:07:20;1.67;;;1.57;;
8825;SDS011;4449;50.872;4.714;2022-07-31T00:09:49;1.67;;;1.50;;
8825;SDS011;4449;50.872;4.714;2022-07-31T00:12:16;1.80;;;1.70;;
8825;SDS011;4449;50.872;4.714;2022-07-31T00:14:45;1.77;;;1.50;;
8825;SDS011;4449;50.872;4.714;2022-07-31T00:17:13;2.80;;;1.52;;
8825;SDS011;4449;50.872;4.714;2022-07-31T00:19:41;1.80;;;1.70;;
8825;SDS011;4449;50.872;4.714;2022-07-31T00:22:09;1.67;;;1.60;;
8825;SDS011;4449;50.872;4.714;2022-07-31T00:24:37;1.70;;;1.60;;
8825;SDS011;4449;50.872;4.714;2022-07-31T00:27:07;2.13;;;1.90;;
8825;SDS011;4449;50.872;4.714;2022-07-31T00:29:35;3.10;;;1.70;;
8825;SDS011;4449;50.872;4.714;2022-07-31T00:32:03;1.98;;;1.88;;
8825;SDS011;4449;50.872;4.714;2022-07-31T00:34:31;2.90;;;1.70;;
8825;SDS011;4449;50.872;4.714;2022-07-31T00:36:58;1.70;;;1.60;;
8825;SDS011;4449;50.872;4.714;2022-07-31T00:39:26;2.55;;;2.20;;
8825;SDS011;4449;50.872;4.714;2022-07-31T00:41:55;1.70;;;1.60;;
8825;SDS011;4449;50.872;4.714;2022-07-31T00:44:24;1.80;;;1.70;;
8825;SDS011;4449;50.872;4.714;2022-07-31T00:46:52;1.92;;;1.83;;
8825;SDS011;4449;50.872;4.714;2022-07-31T00:49:20;1.70;;;1.60;;
8825;SDS011;4449;50.872;4.714;2022-07-31T00:51:48;2.70;;;1.70;;
8825;SDS011;4449;50.872;4.714;2022-07-31T00:54:16;1.85;;;1.65;;
8825;SDS011;4449;50.872;4.714;2022-07-31T00:56:44;1.80;;;1.77;;
8825;SDS011;4449;50.872;4.714;2022-07-31T00:59:12;1.90;;;1.90;;
8825;SDS011;4449;50.872;4.714;2022-07-31T01:01:41;1.80;;;1.80;;
8825;SDS011;4449;50.872;4.714;2022-07-31T01:04:09;1.80;;;1.70;;
8825;SDS011;4449;50.872;4.714;2022-07-31T01:06:38;2.25;;;1.80;;
8825;SDS011;4449;50.872;4.714;2022-07-31T01:09:05;2.03;;;1.90;;
8825;SDS011;4449;50.872;4.714;2022-07-31T01:11:35;1.95;;;1.90;;
8825;SDS011;4449;50.872;4.714;2022-07-31T01:14:05;1.83;;;1.73;;
8825;SDS011;4449;50.872;4.714;2022-07-31T01:16:34;2.03;;;1.85;;
8825;SDS011;4449;50.872;4.714;2022-07-31T01:19:07;2.03;;;1.70;;
8825;SDS011;4449;50.872;4.714;2022-07-31T01:21:38;2.75;;;1.90;;
8825;SDS011;4449;50.872;4.714;2022-07-31T01:24:20;2.30;;;1.80;;
8825;SDS011;4449;50.872;4.714;2022-07-31T01:26:54;2.42;;;1.80;;
8825;SDS011;4449;50.872;4.714;2022-07-31T01:29:24;2.40;;;1.90;;
8825;SDS011;4449;50.872;4.714;2022-07-31T01:31:56;2.42;;;1.92;;
8825;SDS011;4449;50.872;4.714;2022-07-31T01:34:26;2.20;;;2.10;;
8825;SDS011;4449;50.872;4.714;2022-07-31T01:36:59;2.70;;;1.90;;
8825;SDS011;4449;50.872;4.714;2022-07-31T01:39:28;2.22;;;2.03;;
8825;SDS011;4449;50.872;4.714;2022-07-31T01:42:01;2.10;;;1.90;;
8825;SDS011;4449;50.872;4.714;2022-07-31T01:44:37;2.40;;;2.20;;
8825;SDS011;4449;50.872;4.714;2022-07-31T01:47:05;2.45;;;2.25;;
8825;SDS011;4449;50.872;4.714;2022-07-31T01:49:33;2.60;;;2.40;;
8825;SDS011;4449;50.872;4.714;2022-07-31T01:52:01;2.10;;;2.00;;
8825;SDS011;4449;50.872;4.714;2022-07-31T01:54:29;2.00;;;1.90;;
8825;SDS011;4449;50.872;4.714;2022-07-31T01:56:58;2.30;;;2.20;;
8825;SDS011;4449;50.872;4.714;2022-07-31T01:59:30;2.65;;;2.50;;
8825;SDS011;4449;50.872;4.714;2022-07-31T02:02:02;3.13;;;2.20;;
8825;SDS011;4449;50.872;4.714;2022-07-31T02:04:30;2.60;;;2.15;;
8825;SDS011;4449;50.872;4.714;2022-07-31T02:06:58;2.28;;;2.17;;
8825;SDS011;4449;50.872;4.714;2022-07-31T02:09:28;2.30;;;2.20;;
8825;SDS011;4449;50.872;4.714;2022-07-31T02:11:56;2.17;;;2.08;;
8825;SDS011;4449;50.872;4.714;2022-07-31T02:14:25;2.47;;;2.17;;
8825;SDS011;4449;50.872;4.714;2022-07-31T02:16:53;2.50;;;2.35;;
8825;SDS011;4449;50.872;4.714;2022-07-31T02:19:22;1.92;;;1.83;;
8825;SDS011;4449;50.872;4.714;2022-07-31T02:21:54;1.70;;;1.70;;
8825;SDS011;4449;50.872;4.714;2022-07-31T02:24:25;2.38;;;1.88;;
8825;SDS011;4449;50.872;4.714;2022-07-31T02:26:53;2.00;;;1.90;;
8825;SDS011;4449;50.872;4.714;2022-07-31T02:29:21;1.98;;;1.88;;
8825;SDS011;4449;50.872;4.714;2022-07-31T02:31:49;1.80;;;1.70;;
8825;SDS011;4449;50.872;4.714;2022-07-31T02:34:19;2.20;;;1.77;;
8825;SDS011;4449;50.872;4.714;2022-07-31T02:36:50;2.22;;;2.00;;
8825;SDS011;4449;50.872;4.714;2022-07-31T02:39:19;1.83;;;1.80;;
8825;SDS011;4449;50.872;4.714;2022-07-31T02:41:47;3.60;;;1.70;;
8825;SDS011;4449;50.872;4.714;2022-07-31T02:44:15;1.50;;;1.50;;
8825;SDS011;4449;50.872;4.714;2022-07-31T02:46:43;1.95;;;1.77;;
8825;SDS011;4449;50.872;4.714;2022-07-31T02:49:11;2.10;;;1.90;;
8825;SDS011;4449;50.872;4.714;2022-07-31T02:51:39;2.15;;;2.00;;
8825;SDS011;4449;50.872;4.714;2022-07-31T02:54:09;2.10;;;1.83;;
8825;SDS011;4449;50.872;4.714;2022-07-31T02:56:37;1.90;;;1.80;;
8825;SDS011;4449;50.872;4.714;2022-07-31T02:59:05;2.00;;;1.90;;
8825;SDS011;4449;50.872;4.714;2022-07-31T03:01:33;1.88;;;1.67;;
8825;SDS011;4449;50.872;4.714;2022-07-31T03:04:01;2.28;;;1.90;;
8825;SDS011;4449;50.872;4.714;2022-07-31T03:06:29;1.75;;;1.65;;
8825;SDS011;4449;50.872;4.714;2022-07-31T03:08:57;2.53;;;1.90;;
8825;SDS011;4449;50.872;4.714;2022-07-31T03:11:26;2.20;;;2.10;;
8825;SDS011;4449;50.872;4.714;2022-07-31T03:13:54;1.80;;;1.70;;
8825;SDS011;4449;50.872;4.714;2022-07-31T03:16:23;2.25;;;1.70;;
8825;SDS011;4449;50.872;4.714;2022-07-31T03:18:55;1.85;;;1.80;;
8825;SDS011;4449;50.872;4.714;2022-07-31T03:21:23;1.88;;;1.77;;
8825;SDS011;4449;50.872;4.714;2022-07-31T03:23:51;2.00;;;1.70;;
8825;SDS011;4449;50.872;4.714;2022-07-31T03:26:19;1.90;;;1.80;;
8825;SDS011;4449;50.872;4.714;2022-07-31T03:28:48;1.90;;;1.80;;
8825;SDS011;4449;50.872;4.714;2022-07-31T03:31:23;1.98;;;1.88;;
8825;SDS011;4449;50.872;4.714;2022-07-31T03:33:51;1.77;;;1.67;;
8825;SDS011;4449;50.872;4.714;2022-07-31T03:36:23;2.90;;;2.00;;
8825;SDS011;4449;50.872;4.714;2022-07-31T03:38:51;2.33;;;1.90;;
8825;SDS011;4449;50.872;4.714;2022-07-31T03:41:22;2.03;;;1.92;;
8825;SDS011;4449;50.872;4.714;2022-07-31T03:43:51;2.08;;;1.77;;
8825;SDS011;4449;50.872;4.714;2022-07-31T03:46:20;1.90;;;1.80;;
8825;SDS011;4449;50.872;4.714;2022-07-31T03:48:48;2.40;;;1.90;;
8825;SDS011;4449;50.872;4.714;2022-07-31T03:51:16;1.70;;;1.60;;
8825;SDS011;4449;50.872;4.714;2022-07-31T03:53:44;1.70;;;1.60;;
8825;SDS011;4449;50.872;4.714;2022-07-31T03:56:15;2.00;;;1.90;;
8825;SDS011;4449;50.872;4.714;2022-07-31T03:58:44;1.70;;;1.60;;
8825;SDS011;4449;50.872;4.714;2022-07-31T04:01:14;1.98;;;1.80;;
8825;SDS011;4449;50.872;4.714;2022-07-31T04:03:42;1.92;;;1.83;;
8825;SDS011;4449;50.872;4.714;2022-07-31T04:06:10;2.00;;;1.80;;
8825;SDS011;4449;50.872;4.714;2022-07-31T04:08:38;1.95;;;1.73;;
8825;SDS011;4449;50.872;4.714;2022-07-31T04:11:05;2.15;;;2.00;;
8825;SDS011;4449;50.872;4.714;2022-07-31T04:13:33;1.60;;;1.60;;
8825;SDS011;4449;50.872;4.714;2022-07-31T04:16:02;2.20;;;1.85;;
8825;SDS011;4449;50.872;4.714;2022-07-31T04:18:31;2.20;;;2.10;;
8825;SDS011;4449;50.872;4.714;2022-07-31T04:20:59;2.15;;;1.77;;
8825;SDS011;4449;50.872;4.714;2022-07-31T04:23:27;1.83;;;1.73;;
8825;SDS011;4449;50.872;4.714;2022-07-31T04:25:54;2.05;;;1.70;;
8825;SDS011;4449;50.872;4.714;2022-07-31T04:28:23;2.03;;;1.92;;
8825;SDS011;4449;50.872;4.714;2022-07-31T04:30:50;1.90;;;1.80;;
8825;SDS011;4449;50.872;4.714;2022-07-31T04:33:18;3.53;;;2.20;;
8825;SDS011;4449;50.872;4.714;2022-07-31T04:35:48;2.22;;;2.03;;
8825;SDS011;4449;50.872;4.714;2022-07-31T04:38:15;3.00;;;2.08;;
8825;SDS011;4449;50.872;4.714;2022-07-31T04:40:43;2.03;;;1.92;;
8825;SDS011;4449;50.872;4.714;2022-07-31T04:43:11;2.17;;;2.08;;
8825;SDS011;4449;50.872;4.714;2022-07-31T04:45:38;1.70;;;1.63;;
8825;SDS011;4449;50.872;4.714;2022-07-31T04:48:07;2.63;;;2.33;;
8825;SDS011;4449;50.872;4.714;2022-07-31T04:50:37;2.13;;;1.98;;
8825;SDS011;4449;50.872;4.714;2022-07-31T04:53:07;2.13;;;2.03;;
8825;SDS011;4449;50.872;4.714;2022-07-31T04:55:37;2.25;;;1.80;;
8825;SDS011;4449;50.872;4.714;2022-07-31T04:58:05;2.40;;;1.90;;
8825;SDS011;4449;50.872;4.714;2022-07-31T05:00:32;1.90;;;1.80;;
8825;SDS011;4449;50.872;4.714;2022-07-31T05:03:00;2.00;;;1.90;;
8825;SDS011;4449;50.872;4.714;2022-07-31T05:05:28;2.28;;;2.05;;
8825;SDS011;4449;50.872;4.714;2022-07-31T05:07:55;2.00;;;1.80;;
8825;SDS011;4449;50.872;4.714;2022-07-31T05:10:24;1.90;;;1.80;;
8825;SDS011;4449;50.872;4.714;2022-07-31T05:13:10;2.40;;;1.80;;
8825;SDS011;4449;50.872;4.714;2022-07-31T05:15:37;2.90;;;1.90;;
8825;SDS011;4449;50.872;4.714;2022-07-31T05:18:05;2.10;;;1.90;;
8825;SDS011;4449;50.872;4.714;2022-07-31T05:20:33;2.10;;;1.85;;
8825;SDS011;4449;50.872;4.714;2022-07-31T05:23:01;4.43;;;2.25;;
8825;SDS011;4449;50.872;4.714;2022-07-31T05:25:30;1.75;;;1.75;;
8825;SDS011;4449;50.872;4.714;2022-07-31T05:27:58;2.17;;;1.98;;
8825;SDS011;4449;50.872;4.714;2022-07-31T05:30:26;1.80;;;1.80;;
8825;SDS011;4449;50.872;4.714;2022-07-31T05:32:54;2.05;;;1.85;;
8825;SDS011;4449;50.872;4.714;2022-07-31T05:35:25;2.40;;;2.20;;
8825;SDS011;4449;50.872;4.714;2022-07-31T05:37:55;2.13;;;2.13;;
8825;SDS011;4449;50.872;4.714;2022-07-31T05:40:23;2.63;;;2.20;;
8825;SDS011;4449;50.872;4.714;2022-07-31T05:42:53;2.50;;;2.00;;
8825;SDS011;4449;50.872;4.714;2022-07-31T05:45:21;2.30;;;2.20;;
8825;SDS011;4449;50.872;4.714;2022-07-31T05:47:48;2.13;;;2.03;;
8825;SDS011;4449;50.872;4.714;2022-07-31T05:50:16;2.38;;;2.28;;
8825;SDS011;4449;50.872;4.714;2022-07-31T05:52:44;2.30;;;2.20;;
8825;SDS011;4449;50.872;4.714;2022-07-31T05:55:17;2.15;;;2.05;;
8825;SDS011;4449;50.872;4.714;2022-07-31T05:57:44;2.63;;;2.30;;
8825;SDS011;4449;50.872;4.714;2022-07-31T06:00:14;2.30;;;2.10;;
8825;SDS011;4449;50.872;4.714;2022-07-31T06:02:42;2.50;;;2.38;;
8825;SDS011;4449;50.872;4.714;2022-07-31T06:05:10;2.35;;;2.15;;
8825;SDS011;4449;50.872;4.714;2022-07-31T06:07:37;3.50;;;2.40;;
8825;SDS011;4449;50.872;4.714;2022-07-31T06:10:06;2.22;;;2.13;;
8825;SDS011;4449;50.872;4.714;2022-07-31T06:12:34;2.13;;;2.03;;
8825;SDS011;4449;50.872;4.714;2022-07-31T06:15:01;2.33;;;2.22;;
8825;SDS011;4449;50.872;4.714;2022-07-31T06:17:30;2.35;;;2.20;;
8825;SDS011;4449;50.872;4.714;2022-07-31T06:19:58;2.50;;;2.40;;
8825;SDS011;4449;50.872;4.714;2022-07-31T06:22:25;3.25;;;2.63;;
8825;SDS011;4449;50.872;4.714;2022-07-31T06:24:53;3.95;;;2.90;;
8825;SDS011;4449;50.872;4.714;2022-07-31T06:27:21;2.95;;;2.75;;
8825;SDS011;4449;50.872;4.714;2022-07-31T06:29:49;4.53;;;3.10;;
8825;SDS011;4449;50.872;4.714;2022-07-31T06:32:17;3.00;;;2.70;;
8825;SDS011;4449;50.872;4.714;2022-07-31T06:34:46;3.03;;;2.70;;
8825;SDS011;4449;50.872;4.714;2022-07-31T06:37:14;4.43;;;2.80;;
8825;SDS011;4449;50.872;4.714;2022-07-31T06:39:44;3.00;;;2.70;;
8825;SDS011;4449;50.872;4.714;2022-07-31T06:42:16;3.30;;;3.10;;
8825;SDS011;4449;50.872;4.714;2022-07-31T06:44:44;3.10;;;2.90;;
8825;SDS011;4449;50.872;4.714;2022-07-31T06:47:12;2.90;;;2.70;;
8825;SDS011;4449;50.872;4.714;2022-07-31T06:49:40;3.30;;;3.10;;
8825;SDS011;4449;50.872;4.714;2022-07-31T06:52:09;3.88;;;3.50;;
8825;SDS011;4449;50.872;4.714;2022-07-31T06:54:37;3.25;;;2.67;;
8825;SDS011;4449;50.872;4.714;2022-07-31T06:57:04;3.22;;;3.00;;
8825;SDS011;4449;50.872;4.714;2022-07-31T06:59:32;3.83;;;3.55;;
8825;SDS011;4449;50.872;4.714;2022-07-31T07:02:00;3.60;;;3.40;;
8825;SDS011;4449;50.872;4.714;2022-07-31T07:04:27;3.72;;;3.42;;
8825;SDS011;4449;50.872;4.714;2022-07-31T07:06:55;4.22;;;3.83;;
8825;SDS011;4449;50.872;4.714;2022-07-31T07:09:24;4.32;;;3.40;;
8825;SDS011;4449;50.872;4.714;2022-07-31T07:11:52;3.53;;;3.33;;
8825;SDS011;4449;50.872;4.714;2022-07-31T07:14:20;3.50;;;3.30;;
8825;SDS011;4449;50.872;4.714;2022-07-31T07:16:48;3.55;;;3.35;;
8825;SDS011;4449;50.872;4.714;2022-07-31T07:19:15;3.80;;;3.50;;
8825;SDS011;4449;50.872;4.714;2022-07-31T07:21:43;4.28;;;3.63;;
8825;SDS011;4449;50.872;4.714;2022-07-31T07:24:11;4.00;;;3.80;;
8825;SDS011;4449;50.872;4.714;2022-07-31T07:26:40;4.25;;;4.03;;
8825;SDS011;4449;50.872;4.714;2022-07-31T07:29:08;3.72;;;3.53;;
8825;SDS011;4449;50.872;4.714;2022-07-31T07:31:36;3.63;;;3.42;;
8825;SDS011;4449;50.872;4.714;2022-07-31T07:34:03;4.10;;;3.70;;
8825;SDS011;4449;50.872;4.714;2022-07-31T07:36:33;4.13;;;3.75;;
8825;SDS011;4449;50.872;4.714;2022-07-31T07:39:01;4.75;;;3.03;;
8825;SDS011;4449;50.872;4.714;2022-07-31T07:41:28;3.38;;;3.17;;
8825;SDS011;4449;50.872;4.714;2022-07-31T07:43:57;3.42;;;3.22;;
8825;SDS011;4449;50.872;4.714;2022-07-31T07:46:25;3.67;;;3.22;;
8825;SDS011;4449;50.872;4.714;2022-07-31T07:48:53;3.58;;;3.38;;
8825;SDS011;4449;50.872;4.714;2022-07-31T07:51:20;3.47;;;3.17;;
8825;SDS011;4449;50.872;4.714;2022-07-31T07:53:48;3.70;;;3.40;;
8825;SDS011;4449;50.872;4.714;2022-07-31T07:56:16;3.85;;;3.50;;
8825;SDS011;4449;50.872;4.714;2022-07-31T07:58:43;3.35;;;3.15;;
8825;SDS011;4449;50.872;4.714;2022-07-31T08:01:14;3.40;;;3.20;;
8825;SDS011;4449;50.872;4.714;2022-07-31T08:03:42;3.33;;;3.13;;
8825;SDS011;4449;50.872;4.714;2022-07-31T08:06:10;3.85;;;3.42;;
8825;SDS011;4449;50.872;4.714;2022-07-31T08:08:37;4.68;;;3.03;;
8825;SDS011;4449;50.872;4.714;2022-07-31T08:11:05;3.25;;;3.05;;
8825;SDS011;4449;50.872;4.714;2022-07-31T08:13:33;3.58;;;3.28;;
8825;SDS011;4449;50.872;4.714;2022-07-31T08:16:01;2.95;;;2.75;;
8825;SDS011;4449;50.872;4.714;2022-07-31T08:18:30;3.70;;;3.00;;
8825;SDS011;4449;50.872;4.714;2022-07-31T08:20:58;2.85;;;2.65;;
8825;SDS011;4449;50.872;4.714;2022-07-31T08:23:25;4.15;;;2.90;;
8825;SDS011;4449;50.872;4.714;2022-07-31T08:25:53;3.15;;;2.70;;
8825;SDS011;4449;50.872;4.714;2022-07-31T08:28:23;3.15;;;2.97;;
8825;SDS011;4449;50.872;4.714;2022-07-31T08:30:51;2.97;;;2.83;;
8825;SDS011;4449;50.872;4.714;2022-07-31T08:33:19;3.08;;;2.92;;
8825;SDS011;4449;50.872;4.714;2022-07-31T08:35:49;2.83;;;2.72;;
8825;SDS011;4449;50.872;4.714;2022-07-31T08:38:20;3.45;;;3.10;;
8825;SDS011;4449;50.872;4.714;2022-07-31T08:40:48;2.85;;;2.65;;
8825;SDS011;4449;50.872;4.714;2022-07-31T08:43:15;2.95;;;2.75;;
8825;SDS011;4449;50.872;4.714;2022-07-31T08:45:43;2.95;;;2.75;;
8825;SDS011;4449;50.872;4.714;2022-07-31T08:48:11;3.35;;;3.05;;
8825;SDS011;4449;50.872;4.714;2022-07-31T08:50:41;3.27;;;3.07;;
8825;SDS011;4449;50.872;4.714;2022-07-31T08:53:12;2.97;;;2.72;;
8825;SDS011;4449;50.872;4.714;2022-07-31T08:55:42;3.00;;;2.80;;
8825;SDS011;4449;50.872;4.714;2022-07-31T08:58:13;3.15;;;2.90;;
8825;SDS011;4449;50.872;4.714;2022-07-31T09:00:41;2.85;;;2.65;;
8825;SDS011;4449;50.872;4.714;2022-07-31T09:03:09;3.00;;;2.90;;
8825;SDS011;4449;50.872;4.714;2022-07-31T09:05:40;3.00;;;2.83;;
8825;SDS011;4449;50.872;4.714;2022-07-31T09:08:08;3.03;;;2.83;;
8825;SDS011;4449;50.872;4.714;2022-07-31T09:10:37;2.70;;;2.60;;
8825;SDS011;4449;50.872;4.714;2022-07-31T09:13:11;2.58;;;2.40;;
8825;SDS011;4449;50.872;4.714;2022-07-31T09:15:38;3.00;;;2.80;;
8825;SDS011;4449;50.872;4.714;2022-07-31T09:18:14;2.78;;;2.58;;
8825;SDS011;4449;50.872;4.714;2022-07-31T09:20:54;2.50;;;2.38;;
8825;SDS011;4449;50.872;4.714;2022-07-31T09:23:22;2.70;;;2.50;;
8825;SDS011;4449;50.872;4.714;2022-07-31T09:25:54;2.80;;;2.70;;
8825;SDS011;4449;50.872;4.714;2022-07-31T09:28:30;3.03;;;2.70;;
8825;SDS011;4449;50.872;4.714;2022-07-31T09:30:59;3.08;;;2.90;;
8825;SDS011;4449;50.872;4.714;2022-07-31T09:33:27;2.70;;;2.50;;
8825;SDS011;4449;50.872;4.714;2022-07-31T09:35:56;4.03;;;2.70;;
8825;SDS011;4449;50.872;4.714;2022-07-31T09:38:28;2.72;;;2.63;;
8825;SDS011;4449;50.872;4.714;2022-07-31T09:40:58;2.93;;;2.83;;
8825;SDS011;4449;50.872;4.714;2022-07-31T09:43:34;2.90;;;2.70;;
8825;SDS011;4449;50.872;4.714;2022-07-31T09:46:05;3.33;;;3.03;;
8825;SDS011;4449;50.872;4.714;2022-07-31T09:48:33;3.38;;;2.70;;
8825;SDS011;4449;50.872;4.714;2022-07-31T09:51:02;2.88;;;2.78;;
8825;SDS011;4449;50.872;4.714;2022-07-31T09:53:40;2.77;;;2.57;;
8825;SDS011;4449;50.872;4.714;2022-07-31T09:56:11;2.80;;;2.60;;
8825;SDS011;4449;50.872;4.714;2022-07-31T09:58:40;3.00;;;2.80;;
8825;SDS011;4449;50.872;4.714;2022-07-31T10:01:08;3.10;;;2.90;;
8825;SDS011;4449;50.872;4.714;2022-07-31T10:03:36;3.05;;;2.85;;
8825;SDS011;4449;50.872;4.714;2022-07-31T10:06:04;2.92;;;2.75;;
8825;SDS011;4449;50.872;4.714;2022-07-31T10:08:33;2.75;;;2.60;;
8825;SDS011;4449;50.872;4.714;2022-07-31T10:11:02;3.27;;;3.03;;
8825;SDS011;4449;50.872;4.714;2022-07-31T10:13:35;3.13;;;2.85;;
8825;SDS011;4449;50.872;4.714;2022-07-31T10:16:05;3.28;;;2.70;;
8825;SDS011;4449;50.872;4.714;2022-07-31T10:18:36;3.30;;;3.10;;
8825;SDS011;4449;50.872;4.714;2022-07-31T10:21:04;2.83;;;2.73;;
8825;SDS011;4449;50.872;4.714;2022-07-31T10:23:40;3.15;;;2.95;;
8825;SDS011;4449;50.872;4.714;2022-07-31T10:26:08;3.60;;;3.30;;
8825;SDS011;4449;50.872;4.714;2022-07-31T10:28:37;3.65;;;3.35;;
8825;SDS011;4449;50.872;4.714;2022-07-31T10:31:06;3.28;;;3.08;;
8825;SDS011;4449;50.872;4.714;2022-07-31T10:33:34;3.70;;;3.30;;
8825;SDS011;4449;50.872;4.714;2022-07-31T10:36:07;3.80;;;3.60;;
8825;SDS011;4449;50.872;4.714;2022-07-31T10:38:40;3.47;;;3.28;;
8825;SDS011;4449;50.872;4.714;2022-07-31T10:43:59;3.92;;;3.20;;
8825;SDS011;4449;50.872;4.714;2022-07-31T10:46:29;3.10;;;3.00;;
8825;SDS011;4449;50.872;4.714;2022-07-31T10:48:57;3.37;;;3.17;;
8825;SDS011;4449;50.872;4.714;2022-07-31T11:51:06;3.50;;;3.30;;
8825;SDS011;4449;50.872;4.714;2022-07-31T11:53:38;3.53;;;3.10;;
8825;SDS011;4449;50.872;4.714;2022-07-31T11:56:07;3.20;;;2.97;;
8825;SDS011;4449;50.872;4.714;2022-07-31T11:58:35;2.80;;;2.60;;
8825;SDS011;4449;50.872;4.714;2022-07-31T12:01:09;3.20;;;3.10;;
8825;SDS011;4449;50.872;4.714;2022-07-31T12:03:37;3.38;;;3.10;;
8825;SDS011;4449;50.872;4.714;2022-07-31T12:06:06;2.55;;;2.45;;
8825;SDS011;4449;50.872;4.714;2022-07-31T12:08:34;2.97;;;2.88;;
8825;SDS011;4449;50.872;4.714;2022-07-31T12:11:03;2.90;;;2.70;;
8825;SDS011;4449;50.872;4.714;2022-07-31T12:13:32;3.25;;;3.05;;
8825;SDS011;4449;50.872;4.714;2022-07-31T12:16:00;3.00;;;2.80;;
8825;SDS011;4449;50.872;4.714;2022-07-31T12:18:29;3.20;;;3.00;;
8825;SDS011;4449;50.872;4.714;2022-07-31T12:21:00;3.70;;;3.00;;
8825;SDS011;4449;50.872;4.714;2022-07-31T12:23:39;2.92;;;2.75;;
8825;SDS011;4449;50.872;4.714;2022-07-31T12:26:06;2.60;;;2.40;;
8825;SDS011;4449;50.872;4.714;2022-07-31T12:28:34;4.72;;;2.97;;
8825;SDS011;4449;50.872;4.714;2022-07-31T12:31:02;2.55;;;2.42;;
8825;SDS011;4449;50.872;4.714;2022-07-31T12:33:38;2.80;;;2.60;;
8825;SDS011;4449;50.872;4.714;2022-07-31T12:36:10;2.78;;;2.13;;
8825;SDS011;4449;50.872;4.714;2022-07-31T12:38:39;2.53;;;2.42;;
8825;SDS011;4449;50.872;4.714;2022-07-31T12:41:07;2.05;;;1.95;;
8825;SDS011;4449;50.872;4.714;2022-07-31T12:43:35;2.67;;;2.17;;
8825;SDS011;4449;50.872;4.714;2022-07-31T12:46:03;1.98;;;1.88;;
8825;SDS011;4449;50.872;4.714;2022-07-31T12:48:34;2.03;;;1.90;;
8825;SDS011;4449;50.872;4.714;2022-07-31T12:51:02;2.20;;;2.00;;
8825;SDS011;4449;50.872;4.714;2022-07-31T12:53:30;2.10;;;2.00;;
8825;SDS011;4449;50.872;4.714;2022-07-31T12:56:03;2.53;;;2.30;;
8825;SDS011;4449;50.872;4.714;2022-07-31T12:58:30;2.20;;;2.00;;
8825;SDS011;4449;50.872;4.714;2022-07-31T13:00:58;1.90;;;1.90;;
8825;SDS011;4449;50.872;4.714;2022-07-31T13:03:26;2.38;;;2.17;;
8825;SDS011;4449;50.872;4.714;2022-07-31T13:05:54;1.70;;;1.70;;
8825;SDS011;4449;50.872;4.714;2022-07-31T13:08:22;3.60;;;2.53;;
8825;SDS011;4449;50.872;4.714;2022-07-31T13:10:50;2.05;;;1.95;;
8825;SDS011;4449;50.872;4.714;2022-07-31T13:13:19;1.80;;;1.70;;
8825;SDS011;4449;50.872;4.714;2022-07-31T13:15:48;1.97;;;1.87;;
8825;SDS011;4449;50.872;4.714;2022-07-31T13:18:16;1.88;;;1.77;;
8825;SDS011;4449;50.872;4.714;2022-07-31T13:20:44;1.75;;;1.70;;
8825;SDS011;4449;50.872;4.714;2022-07-31T13:23:11;1.90;;;1.80;;
8825;SDS011;4449;50.872;4.714;2022-07-31T13:25:39;2.00;;;1.90;;
8825;SDS011;4449;50.872;4.714;2022-07-31T13:28:07;1.90;;;1.80;;
8825;SDS011;4449;50.872;4.714;2022-07-31T13:30:36;1.60;;;1.50;;
8825;SDS011;4449;50.872;4.714;2022-07-31T13:33:04;2.03;;;1.90;;
8825;SDS011;4449;50.872;4.714;2022-07-31T13:35:31;1.30;;;1.30;;
8825;SDS011;4449;50.872;4.714;2022-07-31T13:37:59;1.88;;;1.80;;
8825;SDS011;4449;50.872;4.714;2022-07-31T13:40:31;1.65;;;1.65;;
8825;SDS011;4449;50.872;4.714;2022-07-31T13:43:15;1.60;;;1.55;;
8825;SDS011;4449;50.872;4.714;2022-07-31T13:45:45;1.73;;;1.65;;
8825;SDS011;4449;50.872;4.714;2022-07-31T13:48:14;1.92;;;1.83;;
8825;SDS011;4449;50.872;4.714;2022-07-31T13:50:42;1.77;;;1.77;;
8825;SDS011;4449;50.872;4.714;2022-07-31T13:53:10;4.45;;;2.03;;
8825;SDS011;4449;50.872;4.714;2022-07-31T13:55:37;2.88;;;1.90;;
8825;SDS011;4449;50.872;4.714;2022-07-31T13:58:05;1.70;;;1.60;;
8825;SDS011;4449;50.872;4.714;2022-07-31T14:00:33;1.75;;;1.70;;
8825;SDS011;4449;50.872;4.714;2022-07-31T14:03:03;1.83;;;1.67;;
8825;SDS011;4449;50.872;4.714;2022-07-31T14:05:30;3.23;;;1.60;;
8825;SDS011;4449;50.872;4.714;2022-07-31T14:07:58;1.63;;;1.52;;
8825;SDS011;4449;50.872;4.714;2022-07-31T14:10:26;1.55;;;1.45;;
8825;SDS011;4449;50.872;4.714;2022-07-31T14:12:54;1.50;;;1.50;;
8825;SDS011;4449;50.872;4.714;2022-07-31T14:15:22;1.80;;;1.70;;
8825;SDS011;4449;50.872;4.714;2022-07-31T14:17:53;1.63;;;1.55;;
8825;SDS011;4449;50.872;4.714;2022-07-31T14:20:22;1.77;;;1.45;;
8825;SDS011;4449;50.872;4.714;2022-07-31T14:22:50;1.50;;;1.50;;
8825;SDS011;4449;50.872;4.714;2022-07-31T14:25:18;1.80;;;1.60;;
8825;SDS011;4449;50.872;4.714;2022-07-31T14:27:46;1.53;;;1.50;;
8825;SDS011;4449;50.872;4.714;2022-07-31T14:30:16;1.52;;;1.52;;
8825;SDS011;4449;50.872;4.714;2022-07-31T14:32:44;1.63;;;1.45;;
8825;SDS011;4449;50.872;4.714;2022-07-31T14:35:12;1.40;;;1.40;;
8825;SDS011;4449;50.872;4.714;2022-07-31T14:37:41;1.50;;;1.50;;
8825;SDS011;4449;50.872;4.714;2022-07-31T14:40:11;1.70;;;1.60;;
8825;SDS011;4449;50.872;4.714;2022-07-31T14:42:39;1.73;;;1.50;;
8825;SDS011;4449;50.872;4.714;2022-07-31T14:45:07;1.33;;;1.30;;
8825;SDS011;4449;50.872;4.714;2022-07-31T14:47:35;1.60;;;1.60;;
8825;SDS011;4449;50.872;4.714;2022-07-31T14:50:03;1.60;;;1.50;;
8825;SDS011;4449;50.872;4.714;2022-07-31T14:52:31;1.80;;;1.70;;
8825;SDS011;4449;50.872;4.714;2022-07-31T14:55:00;1.77;;;1.67;;
8825;SDS011;4449;50.872;4.714;2022-07-31T14:57:28;1.58;;;1.48;;
8825;SDS011;4449;50.872;4.714;2022-07-31T14:59:56;1.48;;;1.48;;
8825;SDS011;4449;50.872;4.714;2022-07-31T15:02:23;1.40;;;1.40;;
8825;SDS011;4449;50.872;4.714;2022-07-31T15:04:51;2.70;;;1.58;;
8825;SDS011;4449;50.872;4.714;2022-07-31T15:07:19;1.63;;;1.52;;
8825;SDS011;4449;50.872;4.714;2022-07-31T15:09:47;1.50;;;1.40;;
8825;SDS011;4449;50.872;4.714;2022-07-31T15:12:16;1.73;;;1.63;;
8825;SDS011;4449;50.872;4.714;2022-07-31T15:14:44;1.63;;;1.52;;
8825;SDS011;4449;50.872;4.714;2022-07-31T15:17:11;1.63;;;1.53;;
8825;SDS011;4449;50.872;4.714;2022-07-31T15:19:39;1.42;;;1.42;;
8825;SDS011;4449;50.872;4.714;2022-07-31T15:22:07;3.60;;;1.60;;
8825;SDS011;4449;50.872;4.714;2022-07-31T15:24:35;2.75;;;1.63;;
8825;SDS011;4449;50.872;4.714;2022-07-31T15:27:03;3.60;;;1.90;;
8825;SDS011;4449;50.872;4.714;2022-07-31T15:29:32;2.13;;;1.92;;
8825;SDS011;4449;50.872;4.714;2022-07-31T15:32:00;1.80;;;1.70;;
8825;SDS011;4449;50.872;4.714;2022-07-31T15:34:28;1.80;;;1.70;;
8825;SDS011;4449;50.872;4.714;2022-07-31T15:36:57;2.45;;;1.80;;
8825;SDS011;4449;50.872;4.714;2022-07-31T15:39:29;1.77;;;1.67;;
8825;SDS011;4449;50.872;4.714;2022-07-31T15:41:57;2.33;;;2.20;;
8825;SDS011;4449;50.872;4.714;2022-07-31T15:44:25;2.20;;;2.10;;
8825;SDS011;4449;50.872;4.714;2022-07-31T15:46:55;2.42;;;2.33;;
8825;SDS011;4449;50.872;4.714;2022-07-31T15:49:22;2.67;;;2.50;;
8825;SDS011;4449;50.872;4.714;2022-07-31T15:51:50;3.47;;;2.65;;
8825;SDS011;4449;50.872;4.714;2022-07-31T15:54:18;2.00;;;1.90;;
8825;SDS011;4449;50.872;4.714;2022-07-31T15:56:46;2.60;;;1.97;;
8825;SDS011;4449;50.872;4.714;2022-07-31T15:59:14;1.70;;;1.70;;
8825;SDS011;4449;50.872;4.714;2022-07-31T16:01:51;1.97;;;1.87;;
8825;SDS011;4449;50.872;4.714;2022-07-31T16:04:20;2.10;;;2.00;;
8825;SDS011;4449;50.872;4.714;2022-07-31T16:06:49;2.15;;;1.95;;
8825;SDS011;4449;50.872;4.714;2022-07-31T16:09:17;1.80;;;1.70;;
8825;SDS011;4449;50.872;4.714;2022-07-31T16:11:48;2.47;;;1.85;;
8825;SDS011;4449;50.872;4.714;2022-07-31T16:14:16;2.17;;;1.70;;
8825;SDS011;4449;50.872;4.714;2022-07-31T16:16:47;1.80;;;1.58;;
8825;SDS011;4449;50.872;4.714;2022-07-31T16:19:15;1.70;;;1.70;;
8825;SDS011;4449;50.872;4.714;2022-07-31T16:21:45;1.63;;;1.40;;
8825;SDS011;4449;50.872;4.714;2022-07-31T16:24:13;1.65;;;1.55;;
8825;SDS011;4449;50.872;4.714;2022-07-31T16:26:41;1.95;;;1.75;;
8825;SDS011;4449;50.872;4.714;2022-07-31T16:29:12;1.70;;;1.60;;